createdAt,value
2018-02-21T00:13:10.311Z,28.87
2018-02-21T00:15:38.660Z,31.17
2018-02-21T00:18:06.259Z,30.75
2018-02-21T00:20:33.861Z,32.72
2018-02-21T00:23:01.470Z,32.28
2018-02-21T00:25:29.825Z,31.87
2018-02-21T00:27:57.401Z,31.73
2018-02-21T00:30:25.776Z,30.95
2018-02-21T00:32:54.118Z,33.33
2018-02-21T00:35:21.709Z,31.58
2018-02-21T00:37:49.291Z,31.52
2018-02-21T00:40:17.647Z,29.90
2018-02-21T00:42:45.225Z,30.87
2018-02-21T00:45:13.592Z,33.20
2018-02-21T00:47:41.939Z,31.80
2018-02-21T00:50:09.530Z,30.85
2018-02-21T00:52:37.870Z,30.67
2018-02-21T00:55:05.477Z,32.40
2018-02-21T00:57:33.809Z,31.80
2018-02-21T01:00:01.387Z,33.10
2018-02-21T01:02:28.969Z,32.85
2018-02-21T01:04:57.343Z,30.10
2018-02-21T01:07:25.701Z,32.50
2018-02-21T01:09:53.294Z,30.95
2018-02-21T01:12:21.673Z,33.20
2018-02-21T01:14:50.019Z,32.40
2018-02-21T01:17:17.663Z,31.15
2018-02-21T01:19:45.243Z,33.83
2018-02-21T01:22:12.832Z,31.75
2018-02-21T01:24:41.219Z,31.75
2018-02-21T01:27:08.825Z,33.00
2018-02-21T01:29:36.439Z,33.75
2018-02-21T01:32:04.022Z,32.33
2018-02-21T01:34:31.665Z,31.80
2018-02-21T01:36:59.239Z,33.03
2018-02-21T01:39:26.827Z,31.80
2018-02-21T01:41:54.421Z,31.23
2018-02-21T01:44:22.800Z,33.40
2018-02-21T01:46:51.149Z,34.25
2018-02-21T01:49:18.722Z,33.85
2018-02-21T01:51:46.353Z,31.23
2018-02-21T01:54:13.927Z,33.13
2018-02-21T01:56:41.521Z,32.55
2018-02-21T01:59:09.928Z,34.45
2018-02-21T02:01:37.493Z,32.75
2018-02-21T02:04:05.077Z,32.43
2018-02-21T02:06:32.676Z,31.60
2018-02-21T02:09:00.246Z,30.75
2018-02-21T02:11:28.646Z,35.03
2018-02-21T02:13:56.210Z,31.20
2018-02-21T02:16:23.795Z,32.85
2018-02-21T02:18:51.430Z,32.90
2018-02-21T02:21:19.010Z,30.45
2018-02-21T02:23:46.652Z,30.30
2018-02-21T02:26:14.230Z,30.90
2018-02-21T02:28:41.796Z,29.75
2018-02-21T02:31:09.431Z,29.90
2018-02-21T02:33:37.000Z,30.60
2018-02-21T02:36:04.579Z,29.57
2018-02-21T02:38:41.175Z,29.37
2018-02-21T02:41:08.760Z,30.67
2018-02-21T02:43:37.093Z,30.75
2018-02-21T02:46:04.699Z,30.08
2018-02-21T02:48:33.032Z,29.58
2018-02-21T02:51:00.630Z,30.20
2018-02-21T02:53:29.021Z,30.45
2018-02-21T02:55:57.376Z,32.35
2018-02-21T02:58:24.951Z,29.92
2018-02-21T03:00:53.340Z,29.17
2018-02-21T03:03:21.682Z,33.40
2018-02-21T03:05:49.258Z,29.20
2018-02-21T03:08:16.846Z,30.73
2018-02-21T03:10:44.416Z,29.77
2018-02-21T03:13:11.997Z,32.38
2018-02-21T03:15:39.607Z,31.00
2018-02-21T03:18:07.949Z,29.95
2018-02-21T03:20:35.568Z,30.00
2018-02-21T03:23:03.145Z,29.90
2018-02-21T03:25:30.725Z,31.20
2018-02-21T03:30:32.206Z,32.08
2018-02-21T03:32:59.820Z,29.30
2018-02-21T03:35:27.388Z,30.50
2018-02-21T03:37:54.950Z,31.50
2018-02-21T03:40:22.541Z,33.30
2018-02-21T03:42:50.126Z,30.40
2018-02-21T03:45:18.495Z,32.30
2018-02-21T03:47:46.058Z,34.08
2018-02-21T03:50:13.649Z,31.03
2018-02-21T03:52:41.232Z,32.23
2018-02-21T03:55:08.843Z,32.00
2018-02-21T03:57:37.218Z,32.70
2018-02-21T04:00:04.789Z,33.83
2018-02-21T04:02:33.128Z,37.43
2018-02-21T04:05:00.730Z,34.57
2018-02-21T04:07:29.077Z,37.95
2018-02-21T04:09:56.674Z,31.67
2018-02-21T04:12:25.051Z,39.30
2018-02-21T04:14:53.383Z,35.17
2018-02-21T04:17:20.951Z,37.33
2018-02-21T04:19:48.559Z,38.50
2018-02-21T04:22:16.134Z,37.58
2018-02-21T04:24:43.740Z,37.13
2018-02-21T04:27:11.317Z,38.75
2018-02-21T04:29:38.904Z,38.65
2018-02-21T04:32:06.506Z,39.67
2018-02-21T04:34:34.061Z,39.90
2018-02-21T04:37:01.662Z,38.88
2018-02-21T04:39:30.013Z,38.95
2018-02-21T04:41:57.725Z,40.37
2018-02-21T04:44:25.291Z,39.80
2018-02-21T04:46:52.948Z,41.33
2018-02-21T04:49:20.575Z,38.37
2018-02-21T04:51:48.146Z,41.17
2018-02-21T04:54:16.514Z,42.10
2018-02-21T04:56:58.968Z,38.60
2018-02-21T04:59:31.581Z,40.38
2018-02-21T05:01:59.170Z,100.10
2018-02-21T05:04:27.527Z,72.85
2018-02-21T05:06:55.117Z,47.33
2018-02-21T05:09:23.441Z,40.40
2018-02-21T05:11:51.046Z,37.05
2018-02-21T05:14:19.402Z,44.08
2018-02-21T05:16:46.980Z,38.35
2018-02-21T05:19:14.589Z,39.30
2018-02-21T05:21:43.023Z,39.75
2018-02-21T05:24:10.605Z,38.57
2018-02-21T05:26:38.214Z,40.08
2018-02-21T05:29:05.778Z,40.13
2018-02-21T05:31:33.401Z,40.77
2018-02-21T05:34:01.004Z,37.50
2018-02-21T05:36:28.579Z,33.63
2018-02-21T05:38:56.160Z,33.88
2018-02-21T05:41:23.997Z,33.78
2018-02-21T05:43:51.816Z,35.20
2018-02-21T05:46:19.585Z,34.70
2018-02-21T05:48:47.565Z,34.30
2018-02-21T05:51:15.178Z,32.03
2018-02-21T05:53:43.520Z,32.70
2018-02-21T05:56:11.103Z,32.38
2018-02-21T05:58:38.699Z,32.90
2018-02-21T06:01:06.278Z,32.30
2018-02-21T06:03:34.100Z,31.17
2018-02-21T06:06:02.447Z,29.33
2018-02-21T06:08:30.049Z,32.13
2018-02-21T06:10:58.387Z,27.60
2018-02-21T06:13:25.954Z,26.63
2018-02-21T06:15:53.543Z,27.70
2018-02-21T06:18:21.870Z,28.90
2018-02-21T06:20:49.488Z,28.60
2018-02-21T06:23:17.068Z,28.80
2018-02-21T06:25:44.671Z,28.60
2018-02-21T06:28:12.310Z,28.70
2018-02-21T06:30:40.115Z,28.90
2018-02-21T06:33:07.689Z,31.03
2018-02-21T06:35:36.028Z,30.90
2018-02-21T06:38:03.624Z,29.60
2018-02-21T06:40:31.983Z,33.23
2018-02-21T06:42:59.555Z,31.83
2018-02-21T06:45:27.924Z,34.50
2018-02-21T06:47:55.516Z,34.23
2018-02-21T06:50:23.124Z,33.83
2018-02-21T06:52:50.699Z,34.27
2018-02-21T06:55:18.291Z,33.30
2018-02-21T06:57:45.867Z,33.20
2018-02-21T07:00:13.509Z,34.87
2018-02-21T07:02:41.064Z,33.30
2018-02-21T07:05:09.398Z,35.40
2018-02-21T07:07:37.001Z,36.17
2018-02-21T07:10:05.390Z,37.87
2018-02-21T07:12:32.955Z,40.33
2018-02-21T07:15:00.541Z,36.83
2018-02-21T07:17:28.141Z,37.43
2018-02-21T07:19:55.701Z,36.23
2018-02-21T07:22:23.291Z,40.03
2018-02-21T07:24:50.890Z,38.05
2018-02-21T07:27:18.498Z,36.83
2018-02-21T07:29:46.831Z,40.10
2018-02-21T07:32:14.407Z,38.40
2018-02-21T07:34:42.011Z,40.50
2018-02-21T07:37:09.575Z,40.30
2018-02-21T07:39:37.159Z,42.10
2018-02-21T07:42:04.749Z,40.60
2018-02-21T07:44:32.352Z,41.57
2018-02-21T07:47:00.685Z,42.70
2018-02-21T07:49:28.277Z,41.20
2018-02-21T07:51:56.789Z,43.57
2018-02-21T07:54:24.376Z,42.10
2018-02-21T07:56:51.952Z,43.60
2018-02-21T07:59:19.537Z,41.23
2018-02-21T08:01:47.870Z,43.90
2018-02-21T08:04:15.470Z,41.80
2018-02-21T08:06:43.797Z,41.13
2018-02-21T08:09:11.386Z,41.90
2018-02-21T08:11:38.953Z,42.27
2018-02-21T08:14:06.532Z,44.93
2018-02-21T08:16:34.915Z,44.17
2018-02-21T08:19:03.253Z,44.57
2018-02-21T08:21:30.829Z,47.40
2018-02-21T08:23:58.427Z,49.50
2018-02-21T08:26:26.008Z,45.27
2018-02-21T08:28:53.599Z,46.17
2018-02-21T08:31:21.169Z,48.30
2018-02-21T08:33:48.774Z,45.33
2018-02-21T08:36:16.361Z,42.23
2018-02-21T08:38:43.938Z,42.90
2018-02-21T08:41:11.543Z,43.57
2018-02-21T08:43:39.128Z,47.13
2018-02-21T08:46:06.735Z,54.93
2018-02-21T08:48:34.311Z,46.33
2018-02-21T08:51:02.659Z,47.30
2018-02-21T08:53:30.293Z,61.50
2018-02-21T08:55:57.866Z,46.03
2018-02-21T08:58:25.445Z,44.73
2018-02-21T09:00:53.047Z,45.50
2018-02-21T09:03:20.601Z,43.73
2018-02-21T09:05:48.958Z,44.33
2018-02-21T09:08:16.538Z,45.13
2018-02-21T09:10:44.872Z,44.23
2018-02-21T09:13:12.458Z,42.20
2018-02-21T09:15:40.795Z,44.63
2018-02-21T09:18:08.494Z,46.30
2018-02-21T09:20:36.853Z,45.30
2018-02-21T09:23:04.423Z,42.70
2018-02-21T09:25:32.029Z,45.13
2018-02-21T09:27:59.609Z,44.33
2018-02-21T09:30:27.216Z,44.63
2018-02-21T09:32:55.569Z,43.30
2018-02-21T09:35:23.168Z,44.40
2018-02-21T09:37:51.507Z,42.63
2018-02-21T09:40:19.118Z,43.90
2018-02-21T09:42:46.715Z,44.63
2018-02-21T09:45:14.307Z,41.57
2018-02-21T09:47:41.888Z,42.77
2018-02-21T09:50:09.512Z,44.57
2018-02-21T09:52:37.093Z,44.30
2018-02-21T09:55:04.682Z,43.30
2018-02-21T09:57:32.282Z,45.70
2018-02-21T09:59:59.860Z,43.03
2018-02-21T10:02:27.464Z,47.57
2018-02-21T10:04:55.059Z,45.37
2018-02-21T10:07:22.636Z,44.37
2018-02-21T10:09:50.212Z,44.40
2018-02-21T10:12:17.831Z,43.70
2018-02-21T10:14:45.407Z,43.70
2018-02-21T10:17:12.999Z,45.67
2018-02-21T10:19:41.362Z,45.87
2018-02-21T10:22:08.929Z,46.23
2018-02-21T10:24:36.514Z,45.37
2018-02-21T10:27:04.084Z,44.97
2018-02-21T10:29:31.714Z,46.30
2018-02-21T10:32:00.061Z,44.97
2018-02-21T10:34:27.637Z,44.10
2018-02-21T10:36:55.239Z,46.07
2018-02-21T10:39:22.812Z,44.90
2018-02-21T10:41:50.395Z,46.63
2018-02-21T10:44:17.963Z,44.60
2018-02-21T10:46:45.598Z,44.73
2018-02-21T10:49:13.154Z,44.50
2018-02-21T10:51:40.721Z,43.93
2018-02-21T10:54:08.319Z,41.67
2018-02-21T10:56:35.888Z,45.07
2018-02-21T10:59:03.519Z,48.10
2018-02-21T11:01:31.083Z,45.93
2018-02-21T11:03:58.667Z,47.57
2018-02-21T11:06:27.037Z,45.30
2018-02-21T11:08:54.610Z,42.30
2018-02-21T11:11:22.180Z,39.80
2018-02-21T11:13:50.541Z,43.80
2018-02-21T11:16:18.130Z,44.60
2018-02-21T11:18:46.492Z,39.40
2018-02-21T11:21:14.824Z,43.63
2018-02-21T11:23:42.470Z,42.67
2018-02-21T11:26:10.039Z,45.60
2018-02-21T11:28:37.620Z,48.10
2018-02-21T11:31:05.217Z,46.77
2018-02-21T11:33:33.555Z,47.40
2018-02-21T11:36:01.161Z,45.77
2018-02-21T11:38:29.497Z,48.10
2018-02-21T11:40:57.085Z,47.53
2018-02-21T11:43:25.495Z,45.57
2018-02-21T11:45:53.089Z,44.23
2018-02-21T11:48:20.719Z,46.43
2018-02-21T11:50:48.297Z,46.40
2018-02-21T11:53:15.927Z,40.57
2018-02-21T11:55:44.262Z,42.03
2018-02-21T11:58:11.824Z,43.80
2018-02-21T12:00:39.426Z,45.57
2018-02-21T12:03:07.021Z,44.03
2018-02-21T12:05:34.624Z,42.70
2018-02-21T12:08:02.199Z,41.13
2018-02-21T12:10:30.581Z,43.53
2018-02-21T12:12:58.141Z,44.67
2018-02-21T12:15:26.462Z,41.13
2018-02-21T12:17:54.071Z,42.80
2018-02-21T12:20:22.425Z,43.13
2018-02-21T12:22:50.039Z,41.27
2018-02-21T12:25:17.607Z,40.60
2018-02-21T12:27:45.173Z,40.77
2018-02-21T12:30:12.764Z,38.60
2018-02-21T12:32:42.926Z,39.43
2018-02-21T12:35:10.539Z,38.27
2018-02-21T12:37:38.139Z,38.40
2018-02-21T12:40:05.744Z,41.20
2018-02-21T12:42:33.330Z,38.50
2018-02-21T12:45:00.917Z,39.10
2018-02-21T12:47:29.267Z,37.83
2018-02-21T12:49:56.840Z,36.47
2018-02-21T12:52:25.210Z,35.57
2018-02-21T12:54:52.774Z,36.13
2018-02-21T12:57:20.492Z,37.87
2018-02-21T12:59:48.100Z,38.57
2018-02-21T13:02:16.458Z,41.07
2018-02-21T13:04:44.092Z,40.97
2018-02-21T13:07:11.658Z,38.77
2018-02-21T13:09:39.216Z,39.93
2018-02-21T13:12:06.819Z,37.37
2018-02-21T13:14:35.186Z,40.77
2018-02-21T13:17:02.766Z,38.57
2018-02-21T13:19:31.108Z,38.93
2018-02-21T13:21:58.693Z,40.43
2018-02-21T13:24:26.261Z,36.20
2018-02-21T13:26:54.644Z,36.63
2018-02-21T13:29:22.974Z,36.83
2018-02-21T13:31:50.546Z,36.70
2018-02-21T13:34:18.143Z,36.57
2018-02-21T13:36:46.479Z,37.83
2018-02-21T13:39:14.136Z,36.70
2018-02-21T13:41:41.673Z,36.20
2018-02-21T13:44:09.233Z,36.70
2018-02-21T13:46:36.824Z,35.93
2018-02-21T13:49:04.391Z,35.00
2018-02-21T13:51:31.992Z,35.03
2018-02-21T13:53:59.587Z,35.80
2018-02-21T13:56:27.154Z,35.30
2018-02-21T13:58:54.763Z,35.93
2018-02-21T14:01:23.092Z,35.97
2018-02-21T14:03:50.669Z,36.57
2018-02-21T14:06:18.286Z,38.20
2018-02-21T14:08:45.857Z,36.27
2018-02-21T14:11:13.434Z,40.57
2018-02-21T14:13:41.037Z,37.30
2018-02-21T14:16:09.379Z,36.97
2018-02-21T14:18:36.990Z,37.07
2018-02-21T14:21:04.555Z,36.80
2018-02-21T14:23:32.163Z,36.07
2018-02-21T14:25:59.726Z,35.20
2018-02-21T14:28:27.305Z,37.20
2018-02-21T14:30:54.926Z,37.67
2018-02-21T14:33:22.486Z,37.63
2018-02-21T14:35:50.076Z,39.20
2018-02-21T14:38:17.663Z,36.37
2018-02-21T14:40:46.034Z,44.43
2018-02-21T14:43:14.376Z,35.97
2018-02-21T14:45:41.932Z,35.67
2018-02-21T14:48:09.554Z,36.33
2018-02-21T14:50:37.131Z,36.20
2018-02-21T14:53:04.744Z,36.20
2018-02-21T14:55:33.100Z,37.00
2018-02-21T14:58:00.714Z,34.37
2018-02-21T15:00:28.346Z,35.90
2018-02-21T15:02:56.676Z,34.57
2018-02-21T15:05:24.245Z,34.57
2018-02-21T15:07:51.873Z,35.87
2018-02-21T15:10:19.442Z,35.00
2018-02-21T15:12:47.008Z,38.80
2018-02-21T15:15:14.624Z,33.90
2018-02-21T15:17:42.975Z,36.13
2018-02-21T15:22:45.167Z,35.30
2018-02-21T15:25:12.759Z,37.40
2018-02-21T15:27:41.095Z,37.23
2018-02-21T15:30:08.698Z,36.37
2018-02-21T15:32:37.039Z,36.20
2018-02-21T15:35:04.637Z,34.50
2018-02-21T15:37:33.009Z,37.20
2018-02-21T15:40:01.373Z,34.97
2018-02-21T15:42:28.957Z,36.07
2018-02-21T15:44:57.333Z,37.17
2018-02-21T15:47:25.664Z,35.27
2018-02-21T15:49:53.268Z,36.40
2018-02-21T15:52:21.613Z,37.83
2018-02-21T15:54:49.191Z,36.00
2018-02-21T15:57:17.542Z,34.90
2018-02-21T15:59:45.122Z,36.63
2018-02-21T16:02:12.681Z,37.80
2018-02-21T16:04:40.277Z,37.10
2018-02-21T16:07:07.866Z,34.57
2018-02-21T16:09:35.429Z,39.27
2018-02-21T16:12:03.026Z,35.40
2018-02-21T16:14:30.580Z,35.17
2018-02-21T16:16:58.181Z,36.30
2018-02-21T16:19:25.765Z,35.77
2018-02-21T16:21:53.370Z,35.30
2018-02-21T16:24:21.704Z,38.20
2018-02-21T16:26:49.271Z,39.83
2018-02-21T16:29:16.867Z,33.57
2018-02-21T16:31:44.435Z,37.27
2018-02-21T16:34:12.767Z,36.63
2018-02-21T16:36:40.389Z,35.30
2018-02-21T16:39:07.981Z,40.97
2018-02-21T16:41:35.542Z,35.07
2018-02-21T16:44:03.107Z,34.90
2018-02-21T16:46:30.697Z,35.93
2018-02-21T16:48:58.260Z,35.60
2018-02-21T16:51:25.871Z,35.90
2018-02-21T16:53:58.991Z,36.40
2018-02-21T16:56:26.607Z,38.83
2018-02-21T16:58:54.197Z,39.37
2018-02-21T17:01:21.799Z,34.37
2018-02-21T17:03:50.204Z,34.90
2018-02-21T17:06:17.761Z,33.23
2018-02-21T17:08:45.351Z,35.10
2018-02-21T17:11:12.945Z,34.80
2018-02-21T17:13:41.516Z,36.63
2018-02-21T17:16:09.090Z,33.67
2018-02-21T17:18:36.683Z,37.53
2018-02-21T17:21:04.296Z,38.87
2018-02-21T17:23:31.893Z,40.60
2018-02-21T17:26:00.273Z,39.80
2018-02-21T17:28:27.900Z,39.53
2018-02-21T17:30:55.551Z,41.60
2018-02-21T17:33:23.144Z,34.47
2018-02-21T17:35:50.722Z,34.50
2018-02-21T17:38:18.374Z,34.40
2018-02-21T17:43:50.807Z,34.37
2018-02-21T17:46:18.357Z,37.57
2018-02-21T17:48:45.930Z,35.43
2018-02-21T17:51:13.542Z,35.75
2018-02-21T17:53:41.909Z,34.13
2018-02-21T17:56:10.291Z,34.57
2018-02-21T17:58:38.652Z,35.00
2018-02-21T18:01:06.252Z,36.22
2018-02-21T18:03:33.855Z,34.27
2018-02-21T18:06:01.484Z,38.10
2018-02-21T18:08:29.096Z,35.10
2018-02-21T18:10:56.673Z,31.98
2018-02-21T18:13:25.034Z,37.65
2018-02-21T18:15:52.623Z,87.60
2018-02-21T18:18:21.006Z,40.40
2018-02-21T18:20:49.347Z,43.80
2018-02-21T18:23:16.938Z,45.37
2018-02-21T18:25:45.300Z,41.57
2018-02-21T18:28:12.882Z,40.38
2018-02-21T18:30:41.233Z,39.00
2018-02-21T18:33:08.818Z,38.27
2018-02-21T18:35:37.193Z,39.45
2018-02-21T18:38:05.558Z,40.35
2018-02-21T18:40:33.934Z,38.55
2018-02-21T18:43:01.759Z,38.28
2018-02-21T18:45:29.307Z,35.88
2018-02-21T18:47:56.912Z,36.90
2018-02-21T18:50:24.474Z,38.20
2018-02-21T18:52:52.078Z,38.35
2018-02-21T18:55:19.642Z,39.10
2018-02-21T18:57:47.256Z,34.72
2018-02-21T19:00:14.828Z,39.80
2018-02-21T19:02:43.189Z,37.03
2018-02-21T19:05:10.837Z,35.65
2018-02-21T19:07:38.428Z,37.23
2018-02-21T19:10:06.781Z,34.50
2018-02-21T19:12:34.362Z,37.55
2018-02-21T19:15:01.939Z,36.73
2018-02-21T19:17:29.577Z,37.15
2018-02-21T19:19:57.184Z,39.20
2018-02-21T19:22:24.760Z,34.83
2018-02-21T19:24:52.341Z,34.70
2018-02-21T19:27:19.945Z,33.15
2018-02-21T19:29:47.575Z,31.33
2018-02-21T19:32:15.193Z,32.20
2018-02-21T19:34:42.758Z,32.13
2018-02-21T19:37:10.375Z,32.22
2018-02-21T19:39:38.768Z,29.40
2018-02-21T19:42:06.337Z,30.50
2018-02-21T19:44:33.909Z,31.27
2018-02-21T19:47:01.568Z,32.05
2018-02-21T19:49:29.155Z,33.67
2018-02-21T19:51:56.735Z,32.22
2018-02-21T19:54:24.347Z,30.15
2018-02-21T19:56:51.913Z,29.90
2018-02-21T19:59:19.510Z,31.55
2018-02-21T20:01:47.108Z,35.78
2018-02-21T20:04:14.737Z,29.87
2018-02-21T20:06:42.320Z,27.65
2018-02-21T20:09:10.690Z,28.42
2018-02-21T20:11:39.042Z,39.00
2018-02-21T20:14:06.656Z,50.30
2018-02-21T20:16:34.270Z,47.30
2018-02-21T20:19:01.852Z,80.07
2018-02-21T20:21:30.223Z,80.47
2018-02-21T20:23:57.792Z,36.07
2018-02-21T20:26:26.178Z,36.97
2018-02-21T20:28:54.524Z,29.30
2018-02-21T20:31:22.102Z,33.88
2018-02-21T20:33:50.461Z,36.20
2018-02-21T20:36:18.058Z,36.40
2018-02-21T20:38:46.450Z,31.08
2018-02-21T20:41:14.031Z,36.03
2018-02-21T20:43:41.621Z,38.92
2018-02-21T20:46:09.217Z,31.05
2018-02-21T20:48:37.590Z,31.17
2018-02-21T20:51:05.926Z,28.55
2018-02-21T20:53:33.511Z,28.20
2018-02-21T20:56:01.117Z,29.15
2018-02-21T20:58:28.703Z,28.58
2018-02-21T21:03:30.309Z,28.95
2018-02-21T21:05:58.665Z,29.00
2018-02-21T21:08:26.235Z,28.48
2018-02-21T21:10:53.840Z,27.45
2018-02-21T21:13:21.454Z,26.52
2018-02-21T21:15:49.026Z,30.88
2018-02-21T21:18:17.415Z,31.08
2018-02-21T21:20:45.741Z,33.95
2018-02-21T21:23:13.328Z,28.92
2018-02-21T21:25:40.936Z,29.90
2018-02-21T21:28:08.524Z,28.02
2018-02-21T21:30:36.132Z,31.23
2018-02-21T21:33:04.491Z,30.33
2018-02-21T21:35:32.102Z,30.42
2018-02-21T21:37:59.696Z,29.02
2018-02-21T21:40:27.298Z,30.52
2018-02-21T21:42:55.663Z,28.10
2018-02-21T21:45:24.046Z,31.70
2018-02-21T21:47:52.406Z,32.63
2018-02-21T21:50:20.016Z,29.85
2018-02-21T21:52:47.619Z,33.90
2018-02-21T21:55:15.202Z,30.58
2018-02-21T21:57:43.588Z,28.52
2018-02-21T22:00:11.949Z,29.25
2018-02-21T22:02:39.521Z,27.35
2018-02-21T22:05:07.912Z,29.05
2018-02-21T22:07:36.249Z,29.50
2018-02-21T22:10:03.825Z,31.30
2018-02-21T22:12:31.461Z,29.05
2018-02-21T22:14:59.027Z,27.85
2018-02-21T22:17:26.601Z,32.10
2018-02-21T22:19:54.202Z,31.00
2018-02-21T22:22:21.798Z,30.83
2018-02-21T22:24:49.391Z,30.70
2018-02-21T22:27:16.990Z,32.17
2018-02-21T22:29:44.579Z,30.35
2018-02-21T22:32:12.207Z,30.65
2018-02-21T22:34:39.799Z,28.90
2018-02-21T22:37:07.374Z,29.75
2018-02-21T22:39:34.968Z,32.42
2018-02-21T22:44:37.322Z,33.10
2018-02-21T22:47:04.921Z,32.65
2018-02-21T22:49:33.371Z,31.55
2018-02-21T22:52:01.016Z,33.97
2018-02-21T22:54:28.617Z,29.58
2018-02-21T22:56:56.957Z,27.75
2018-02-21T22:59:24.554Z,29.25
2018-02-21T23:01:52.878Z,29.58
2018-02-21T23:04:20.478Z,27.98
2018-02-21T23:06:48.053Z,29.23
2018-02-21T23:09:16.424Z,31.12
2018-02-21T23:11:43.992Z,25.95
2018-02-21T23:14:12.382Z,29.80
2018-02-21T23:16:40.721Z,27.92
2018-02-21T23:19:08.305Z,26.12
2018-02-21T23:21:36.712Z,24.70
2018-02-21T23:24:04.288Z,26.40
2018-02-21T23:26:31.894Z,26.15
2018-02-21T23:28:59.458Z,26.25
2018-02-21T23:31:27.024Z,27.60
2018-02-21T23:33:55.381Z,28.65
2018-02-21T23:36:24.459Z,24.65
2018-02-21T23:38:52.054Z,27.40
2018-02-21T23:41:20.405Z,26.67
2018-02-21T23:43:48.027Z,23.30
2018-02-21T23:46:15.605Z,26.12
2018-02-21T23:48:43.199Z,24.52
2018-02-21T23:51:10.760Z,24.95
2018-02-21T23:53:38.352Z,24.48
2018-02-21T23:56:06.718Z,24.52
2018-02-21T23:58:35.050Z,24.33
